Capetan Vassilis — C6S2085 — position and weather

sailwx.info

Track history (hours):
 
Tides and Currents Weather Stations Pressure Air Temp Water Temp Dewpoint Dewpoint Depression Visibility Wind Speed Wind Dir Waves Ship Positions

Capetan Vassilis

Last reported at 2017-Jul-23 22:27 UTC. Time now 2017-Jul-23 22:37 UTC.
Position N 37°35' E 010°39'.

Length 191 m; draft 10.1 m.

Type: Cargo ship. MMSI: 311552000.

Date/timePositionNaut miles runAvg speedWind from/ knotsBaromVisibWave heightAir tempDewpointWater temp
2017-Jul-23 22:27N 37°35' E 010°39'1313.2
2017-Jul-23 21:27N 37°31' E 010°55'713.3
2017-Jul-23 20:56N 37°30' E 011°03'612.9
2017-Jul-23 20:30N 37°28' E 011°10'812.8
2017-Jul-23 19:52N 37°24' E 011°19'513.0
2017-Jul-23 19:29N 37°22' E 011°24'713.2
2017-Jul-23 19:00N 37°18' E 011°32'713.2
2017-Jul-23 18:30N 37°15' E 011°39'713.4
2017-Jul-23 18:00N 37°12' E 011°46'613.3
2017-Jul-23 17:30N 37°09' E 011°54'713.2
2017-Jul-23 17:00N 37°06' E 012°01'713.5
2017-Jul-23 16:30N 37°03' E 012°09'713.5
2017-Jul-23 16:00N 37°02' E 012°17'713.2
2017-Jul-23 15:30N 37°00' E 012°25'713.3
2017-Jul-23 15:00N 36°59' E 012°33'713.2
2017-Jul-23 14:30N 36°57' E 012°41'713.2
2017-Jul-23 14:00N 36°56' E 012°49'713.3
2017-Jul-23 13:30N 36°54' E 012°57'712.9
2017-Jul-23 13:00N 36°53' E 013°05'612.7
2017-Jul-23 12:30N 36°52' E 013°13'612.8
2017-Jul-23 12:00N 36°50' E 013°21'612.7
2017-Jul-23 11:30N 36°49' E 013°28'612.7
2017-Jul-23 11:00N 36°48' E 013°36'612.6
2017-Jul-23 10:30N 36°46' E 013°44'612.6
2017-Jul-23 10:00N 36°45' E 013°52'612.4
2017-Jul-23 09:30N 36°44' E 013°59'612.3
2017-Jul-23 09:00N 36°42' E 014°07'612.1
2017-Jul-23 08:30N 36°42' E 014°14'611.9
2017-Jul-23 08:00N 36°41' E 014°22'611.9
2017-Jul-23 07:30N 36°40' E 014°29'611.6
2017-Jul-23 07:00N 36°37' E 014°36'611.8
2017-Jul-23 06:30N 36°36' E 014°43'611.7
2017-Jul-23 06:00N 36°35' E 014°50'612.1
2017-Jul-23 05:30N 36°33' E 014°57'612.3
2017-Jul-23 05:00N 36°32' E 015°04'612.8
2017-Jul-23 04:30N 36°30' E 015°12'612.6
2017-Jul-23 04:00N 36°28' E 015°20'612.7
2017-Jul-23 03:30N 36°27' E 015°27'712.8
2017-Jul-23 03:00N 36°26' E 015°35'612.9
2017-Jul-23 02:30N 36°24' E 015°43'913.2
2017-Jul-23 01:50N 36°22' E 015°54'7412.8
2017-Jul-22 20:03N 36°04' E 017°23'112.9
2017-Jul-22 19:57N 36°04' E 017°24'613.0
2017-Jul-22 19:29N 36°02' E 017°32'2713.0
2017-Jul-22 17:23N 35°55' E 018°04'1112.8
2017-Jul-22 16:32N 35°53' E 018°17'112.6
2017-Jul-22 16:30N 35°53' E 018°18'712.9
2017-Jul-22 15:59N 35°51' E 018°26'3712.8
2017-Jul-22 13:08N 35°42' E 019°10'212.6
2017-Jul-22 13:00N 35°42' E 019°12'54612.5
2017-Jul-20 17:26N 35°22' E 030°22'613.4
2017-Jul-20 17:00N 35°23' E 030°29'  
2017-Jul-14 00:18N 36°16' E 035°06'413.8
2017-Jul-14 00:00N 36°15' E 035°01'  
Track history (hours):
 
Tides and Currents Weather Stations Pressure Air Temp Water Temp Dewpoint Dewpoint Depression Visibility Wind Speed Wind Dir Waves Ship Positions

Capetan Vassilis

Last reported at 2017-Jul-23 22:27 UTC. Time now 2017-Jul-23 22:37 UTC.
Position N 37°35' E 010°39'.

Length 191 m; draft 10.1 m.

Type: Cargo ship. MMSI: 311552000.

Date/timePositionNaut miles runAvg speedWind from/ knotsBaromVisibWave heightAir tempDewpointWater temp
2017-Jul-23 22:27N 37°35' E 010°39'1313.2
2017-Jul-23 21:27N 37°31' E 010°55'713.3
2017-Jul-23 20:56N 37°30' E 011°03'612.9
2017-Jul-23 20:30N 37°28' E 011°10'812.8
2017-Jul-23 19:52N 37°24' E 011°19'513.0
2017-Jul-23 19:29N 37°22' E 011°24'713.2
2017-Jul-23 19:00N 37°18' E 011°32'713.2
2017-Jul-23 18:30N 37°15' E 011°39'713.4
2017-Jul-23 18:00N 37°12' E 011°46'613.3
2017-Jul-23 17:30N 37°09' E 011°54'713.2
2017-Jul-23 17:00N 37°06' E 012°01'713.5
2017-Jul-23 16:30N 37°03' E 012°09'713.5
2017-Jul-23 16:00N 37°02' E 012°17'713.2
2017-Jul-23 15:30N 37°00' E 012°25'713.3
2017-Jul-23 15:00N 36°59' E 012°33'713.2
2017-Jul-23 14:30N 36°57' E 012°41'713.2
2017-Jul-23 14:00N 36°56' E 012°49'713.3
2017-Jul-23 13:30N 36°54' E 012°57'712.9
2017-Jul-23 13:00N 36°53' E 013°05'612.7
2017-Jul-23 12:30N 36°52' E 013°13'612.8
2017-Jul-23 12:00N 36°50' E 013°21'612.7
2017-Jul-23 11:30N 36°49' E 013°28'612.7
2017-Jul-23 11:00N 36°48' E 013°36'612.6
2017-Jul-23 10:30N 36°46' E 013°44'612.6
2017-Jul-23 10:00N 36°45' E 013°52'612.4
2017-Jul-23 09:30N 36°44' E 013°59'612.3
2017-Jul-23 09:00N 36°42' E 014°07'612.1
2017-Jul-23 08:30N 36°42' E 014°14'611.9
2017-Jul-23 08:00N 36°41' E 014°22'611.9
2017-Jul-23 07:30N 36°40' E 014°29'611.6
2017-Jul-23 07:00N 36°37' E 014°36'611.8
2017-Jul-23 06:30N 36°36' E 014°43'611.7
2017-Jul-23 06:00N 36°35' E 014°50'612.1
2017-Jul-23 05:30N 36°33' E 014°57'612.3
2017-Jul-23 05:00N 36°32' E 015°04'612.8
2017-Jul-23 04:30N 36°30' E 015°12'612.6
2017-Jul-23 04:00N 36°28' E 015°20'612.7
2017-Jul-23 03:30N 36°27' E 015°27'712.8
2017-Jul-23 03:00N 36°26' E 015°35'612.9
2017-Jul-23 02:30N 36°24' E 015°43'913.2
2017-Jul-23 01:50N 36°22' E 015°54'7412.8
2017-Jul-22 20:03N 36°04' E 017°23'112.9
2017-Jul-22 19:57N 36°04' E 017°24'613.0
2017-Jul-22 19:29N 36°02' E 017°32'2713.0
2017-Jul-22 17:23N 35°55' E 018°04'1112.8
2017-Jul-22 16:32N 35°53' E 018°17'112.6
2017-Jul-22 16:30N 35°53' E 018°18'712.9
2017-Jul-22 15:59N 35°51' E 018°26'3712.8
2017-Jul-22 13:08N 35°42' E 019°10'212.6
2017-Jul-22 13:00N 35°42' E 019°12'54612.5
2017-Jul-20 17:26N 35°22' E 030°22'613.4
2017-Jul-20 17:00N 35°23' E 030°29'  
2017-Jul-14 00:18N 36°16' E 035°06'413.8
2017-Jul-14 00:00N 36°15' E 035°01'  

Dump ship's entire track history